sensor_id;sensor_type;location;lat;lon;timestamp;P1;durP1;ratioP1;P2;durP2;ratioP2
19605;SDS011;9950;50.168;8.210;2023-08-21T00:01:15;11.00;;;8.35;;
19605;SDS011;9950;50.168;8.210;2023-08-21T00:03:43;14.18;;;8.25;;
19605;SDS011;9950;50.168;8.210;2023-08-21T00:06:11;11.85;;;8.68;;
19605;SDS011;9950;50.168;8.210;2023-08-21T00:08:39;14.35;;;8.77;;
19605;SDS011;9950;50.168;8.210;2023-08-21T00:11:06;13.55;;;8.48;;
19605;SDS011;9950;50.168;8.210;2023-08-21T00:13:33;11.55;;;8.45;;
19605;SDS011;9950;50.168;8.210;2023-08-21T00:16:00;9.32;;;7.05;;
19605;SDS011;9950;50.168;8.210;2023-08-21T00:18:27;10.13;;;7.05;;
19605;SDS011;9950;50.168;8.210;2023-08-21T00:20:55;10.93;;;6.43;;
19605;SDS011;9950;50.168;8.210;2023-08-21T00:23:23;15.27;;;7.70;;
19605;SDS011;9950;50.168;8.210;2023-08-21T00:25:51;13.05;;;7.55;;
19605;SDS011;9950;50.168;8.210;2023-08-21T00:28:18;11.55;;;7.25;;
19605;SDS011;9950;50.168;8.210;2023-08-21T00:30:45;8.13;;;6.38;;
19605;SDS011;9950;50.168;8.210;2023-08-21T00:33:12;9.07;;;6.20;;
19605;SDS011;9950;50.168;8.210;2023-08-21T00:35:42;10.48;;;7.10;;
19605;SDS011;9950;50.168;8.210;2023-08-21T00:38:10;12.90;;;8.18;;
19605;SDS011;9950;50.168;8.210;2023-08-21T00:40:38;12.27;;;7.63;;
19605;SDS011;9950;50.168;8.210;2023-08-21T00:43:05;11.50;;;7.53;;
19605;SDS011;9950;50.168;8.210;2023-08-21T00:45:33;12.10;;;7.35;;
19605;SDS011;9950;50.168;8.210;2023-08-21T00:48:14;11.90;;;8.20;;
19605;SDS011;9950;50.168;8.210;2023-08-21T00:50:41;14.65;;;8.70;;
19605;SDS011;9950;50.168;8.210;2023-08-21T00:53:09;11.82;;;8.70;;
19605;SDS011;9950;50.168;8.210;2023-08-21T00:55:38;13.68;;;9.02;;
19605;SDS011;9950;50.168;8.210;2023-08-21T00:58:06;13.95;;;9.25;;
19605;SDS011;9950;50.168;8.210;2023-08-21T01:00:33;17.23;;;9.38;;
19605;SDS011;9950;50.168;8.210;2023-08-21T01:03:01;14.82;;;9.88;;
19605;SDS011;9950;50.168;8.210;2023-08-21T01:05:28;11.63;;;9.55;;
19605;SDS011;9950;50.168;8.210;2023-08-21T01:07:57;12.30;;;7.88;;
19605;SDS011;9950;50.168;8.210;2023-08-21T01:10:27;13.02;;;8.40;;
19605;SDS011;9950;50.168;8.210;2023-08-21T01:13:01;10.55;;;7.60;;
19605;SDS011;9950;50.168;8.210;2023-08-21T01:15:30;9.88;;;6.28;;
19605;SDS011;9950;50.168;8.210;2023-08-21T01:17:58;9.77;;;6.15;;
19605;SDS011;9950;50.168;8.210;2023-08-21T01:20:26;8.30;;;6.15;;
19605;SDS011;9950;50.168;8.210;2023-08-21T01:22:53;9.20;;;8.15;;
19605;SDS011;9950;50.168;8.210;2023-08-21T01:25:22;12.90;;;9.23;;
19605;SDS011;9950;50.168;8.210;2023-08-21T01:27:50;14.15;;;9.80;;
19605;SDS011;9950;50.168;8.210;2023-08-21T01:30:18;12.23;;;9.10;;
19605;SDS011;9950;50.168;8.210;2023-08-21T01:32:48;9.55;;;7.07;;
19605;SDS011;9950;50.168;8.210;2023-08-21T01:35:18;12.13;;;7.50;;
19605;SDS011;9950;50.168;8.210;2023-08-21T01:37:47;12.15;;;8.05;;
19605;SDS011;9950;50.168;8.210;2023-08-21T01:40:19;19.27;;;10.57;;
19605;SDS011;9950;50.168;8.210;2023-08-21T01:42:48;11.52;;;8.20;;
19605;SDS011;9950;50.168;8.210;2023-08-21T01:45:15;16.90;;;8.10;;
19605;SDS011;9950;50.168;8.210;2023-08-21T01:47:45;13.43;;;8.27;;
19605;SDS011;9950;50.168;8.210;2023-08-21T01:50:13;9.43;;;7.25;;
19605;SDS011;9950;50.168;8.210;2023-08-21T01:52:40;15.75;;;8.50;;
19605;SDS011;9950;50.168;8.210;2023-08-21T01:55:07;11.25;;;8.43;;
19605;SDS011;9950;50.168;8.210;2023-08-21T01:57:35;10.57;;;7.45;;
19605;SDS011;9950;50.168;8.210;2023-08-21T02:00:04;9.68;;;8.43;;
19605;SDS011;9950;50.168;8.210;2023-08-21T02:02:33;12.65;;;7.88;;
19605;SDS011;9950;50.168;8.210;2023-08-21T02:05:00;13.98;;;8.88;;
19605;SDS011;9950;50.168;8.210;2023-08-21T02:07:28;9.60;;;6.50;;
19605;SDS011;9950;50.168;8.210;2023-08-21T02:09:56;10.95;;;6.40;;
19605;SDS011;9950;50.168;8.210;2023-08-21T02:12:23;8.48;;;7.53;;
19605;SDS011;9950;50.168;8.210;2023-08-21T02:14:50;11.75;;;6.78;;
19605;SDS011;9950;50.168;8.210;2023-08-21T02:17:19;9.13;;;7.22;;
19605;SDS011;9950;50.168;8.210;2023-08-21T02:19:46;8.25;;;6.45;;
19605;SDS011;9950;50.168;8.210;2023-08-21T02:22:13;8.32;;;7.40;;
19605;SDS011;9950;50.168;8.210;2023-08-21T02:24:40;11.38;;;7.50;;
19605;SDS011;9950;50.168;8.210;2023-08-21T02:27:08;11.32;;;8.38;;
19605;SDS011;9950;50.168;8.210;2023-08-21T02:29:35;12.00;;;8.10;;
19605;SDS011;9950;50.168;8.210;2023-08-21T02:32:02;12.52;;;8.25;;
19605;SDS011;9950;50.168;8.210;2023-08-21T02:34:31;12.52;;;8.95;;
19605;SDS011;9950;50.168;8.210;2023-08-21T02:36:58;16.88;;;9.75;;
19605;SDS011;9950;50.168;8.210;2023-08-21T02:39:26;11.75;;;8.80;;
19605;SDS011;9950;50.168;8.210;2023-08-21T02:41:53;12.48;;;9.18;;
19605;SDS011;9950;50.168;8.210;2023-08-21T02:44:20;13.60;;;10.20;;
19605;SDS011;9950;50.168;8.210;2023-08-21T02:46:47;13.95;;;11.20;;
19605;SDS011;9950;50.168;8.210;2023-08-21T02:49:18;13.05;;;9.65;;
19605;SDS011;9950;50.168;8.210;2023-08-21T02:51:46;14.32;;;8.48;;
19605;SDS011;9950;50.168;8.210;2023-08-21T02:54:13;11.02;;;7.85;;
19605;SDS011;9950;50.168;8.210;2023-08-21T02:56:41;9.02;;;6.72;;
19605;SDS011;9950;50.168;8.210;2023-08-21T02:59:08;7.65;;;6.35;;
19605;SDS011;9950;50.168;8.210;2023-08-21T03:01:35;11.27;;;6.82;;
19605;SDS011;9950;50.168;8.210;2023-08-21T03:04:02;10.43;;;7.93;;
19605;SDS011;9950;50.168;8.210;2023-08-21T03:06:30;20.35;;;9.95;;
19605;SDS011;9950;50.168;8.210;2023-08-21T03:08:58;9.82;;;7.55;;
19605;SDS011;9950;50.168;8.210;2023-08-21T03:11:25;8.93;;;6.78;;
19605;SDS011;9950;50.168;8.210;2023-08-21T03:13:53;7.80;;;6.20;;
19605;SDS011;9950;50.168;8.210;2023-08-21T03:16:38;8.60;;;7.65;;
19605;SDS011;9950;50.168;8.210;2023-08-21T03:19:06;9.43;;;7.50;;
19605;SDS011;9950;50.168;8.210;2023-08-21T03:21:33;9.38;;;7.40;;
19605;SDS011;9950;50.168;8.210;2023-08-21T03:24:01;10.63;;;7.82;;
19605;SDS011;9950;50.168;8.210;2023-08-21T03:26:29;9.70;;;8.05;;
19605;SDS011;9950;50.168;8.210;2023-08-21T03:28:56;9.45;;;8.07;;
19605;SDS011;9950;50.168;8.210;2023-08-21T03:31:23;12.13;;;8.52;;
19605;SDS011;9950;50.168;8.210;2023-08-21T03:33:51;14.05;;;9.73;;
19605;SDS011;9950;50.168;8.210;2023-08-21T03:36:18;13.63;;;10.25;;
19605;SDS011;9950;50.168;8.210;2023-08-21T03:38:45;14.98;;;11.68;;
19605;SDS011;9950;50.168;8.210;2023-08-21T03:41:14;18.38;;;12.00;;
19605;SDS011;9950;50.168;8.210;2023-08-21T03:43:42;12.93;;;8.65;;
19605;SDS011;9950;50.168;8.210;2023-08-21T03:46:09;14.80;;;9.48;;
19605;SDS011;9950;50.168;8.210;2023-08-21T03:48:36;11.95;;;7.47;;
19605;SDS011;9950;50.168;8.210;2023-08-21T03:51:03;13.30;;;8.07;;
19605;SDS011;9950;50.168;8.210;2023-08-21T03:53:31;12.65;;;8.93;;
19605;SDS011;9950;50.168;8.210;2023-08-21T03:55:58;10.63;;;8.13;;
19605;SDS011;9950;50.168;8.210;2023-08-21T03:58:26;9.95;;;7.13;;
19605;SDS011;9950;50.168;8.210;2023-08-21T04:00:54;11.95;;;8.48;;
19605;SDS011;9950;50.168;8.210;2023-08-21T04:03:21;11.38;;;7.82;;
19605;SDS011;9950;50.168;8.210;2023-08-21T04:05:48;9.30;;;8.00;;
19605;SDS011;9950;50.168;8.210;2023-08-21T04:08:16;10.13;;;8.20;;
19605;SDS011;9950;50.168;8.210;2023-08-21T04:10:43;9.27;;;7.80;;
19605;SDS011;9950;50.168;8.210;2023-08-21T04:13:10;8.70;;;7.25;;
19605;SDS011;9950;50.168;8.210;2023-08-21T04:15:39;8.07;;;6.50;;
19605;SDS011;9950;50.168;8.210;2023-08-21T04:18:06;10.55;;;8.00;;
19605;SDS011;9950;50.168;8.210;2023-08-21T04:20:33;12.32;;;9.35;;
19605;SDS011;9950;50.168;8.210;2023-08-21T04:23:03;16.58;;;11.10;;
19605;SDS011;9950;50.168;8.210;2023-08-21T04:25:30;14.50;;;11.10;;
19605;SDS011;9950;50.168;8.210;2023-08-21T04:27:57;16.08;;;10.80;;
19605;SDS011;9950;50.168;8.210;2023-08-21T04:30:25;13.25;;;10.25;;
19605;SDS011;9950;50.168;8.210;2023-08-21T04:32:53;16.58;;;10.43;;
19605;SDS011;9950;50.168;8.210;2023-08-21T04:35:20;18.17;;;11.32;;
19605;SDS011;9950;50.168;8.210;2023-08-21T04:37:48;17.45;;;11.85;;
19605;SDS011;9950;50.168;8.210;2023-08-21T04:40:15;15.95;;;11.63;;
19605;SDS011;9950;50.168;8.210;2023-08-21T04:42:45;11.73;;;7.63;;
19605;SDS011;9950;50.168;8.210;2023-08-21T04:45:12;12.82;;;8.13;;
19605;SDS011;9950;50.168;8.210;2023-08-21T04:47:39;8.45;;;6.70;;
19605;SDS011;9950;50.168;8.210;2023-08-21T04:50:08;9.02;;;5.68;;
19605;SDS011;9950;50.168;8.210;2023-08-21T04:52:36;10.90;;;6.82;;
19605;SDS011;9950;50.168;8.210;2023-08-21T04:55:03;9.05;;;6.03;;
19605;SDS011;9950;50.168;8.210;2023-08-21T04:57:31;7.20;;;5.55;;
19605;SDS011;9950;50.168;8.210;2023-08-21T04:59:58;10.38;;;7.72;;
19605;SDS011;9950;50.168;8.210;2023-08-21T05:02:25;10.65;;;7.80;;
19605;SDS011;9950;50.168;8.210;2023-08-21T05:04:52;12.13;;;7.63;;
19605;SDS011;9950;50.168;8.210;2023-08-21T05:07:21;9.95;;;8.10;;
19605;SDS011;9950;50.168;8.210;2023-08-21T05:09:49;10.38;;;8.75;;
19605;SDS011;9950;50.168;8.210;2023-08-21T05:12:16;11.20;;;8.32;;
19605;SDS011;9950;50.168;8.210;2023-08-21T05:14:44;12.25;;;7.93;;
19605;SDS011;9950;50.168;8.210;2023-08-21T05:17:11;10.25;;;8.10;;
19605;SDS011;9950;50.168;8.210;2023-08-21T05:19:38;11.93;;;8.45;;
19605;SDS011;9950;50.168;8.210;2023-08-21T05:22:06;13.95;;;8.88;;
19605;SDS011;9950;50.168;8.210;2023-08-21T05:24:34;13.10;;;9.57;;
19605;SDS011;9950;50.168;8.210;2023-08-21T05:27:02;14.80;;;9.32;;
19605;SDS011;9950;50.168;8.210;2023-08-21T05:29:30;14.32;;;9.73;;
19605;SDS011;9950;50.168;8.210;2023-08-21T05:31:57;18.25;;;11.30;;
19605;SDS011;9950;50.168;8.210;2023-08-21T05:34:25;16.85;;;11.77;;
19605;SDS011;9950;50.168;8.210;2023-08-21T05:36:53;16.20;;;10.98;;
19605;SDS011;9950;50.168;8.210;2023-08-21T05:39:20;11.77;;;9.45;;
19605;SDS011;9950;50.168;8.210;2023-08-21T05:41:49;14.35;;;10.98;;
19605;SDS011;9950;50.168;8.210;2023-08-21T05:44:17;14.35;;;10.85;;
19605;SDS011;9950;50.168;8.210;2023-08-21T05:46:44;16.10;;;11.77;;
19605;SDS011;9950;50.168;8.210;2023-08-21T05:49:12;16.77;;;12.85;;
19605;SDS011;9950;50.168;8.210;2023-08-21T05:51:39;14.23;;;12.07;;
19605;SDS011;9950;50.168;8.210;2023-08-21T05:54:06;18.52;;;12.38;;
19605;SDS011;9950;50.168;8.210;2023-08-21T05:56:34;15.35;;;12.07;;
19605;SDS011;9950;50.168;8.210;2023-08-21T05:59:02;17.90;;;13.20;;
19605;SDS011;9950;50.168;8.210;2023-08-21T06:01:30;18.23;;;13.15;;
19605;SDS011;9950;50.168;8.210;2023-08-21T06:03:57;17.73;;;12.77;;
19605;SDS011;9950;50.168;8.210;2023-08-21T06:06:24;17.98;;;13.20;;
19605;SDS011;9950;50.168;8.210;2023-08-21T06:08:51;17.55;;;13.00;;
19605;SDS011;9950;50.168;8.210;2023-08-21T06:11:19;17.30;;;13.13;;
19605;SDS011;9950;50.168;8.210;2023-08-21T06:13:47;18.63;;;12.35;;
19605;SDS011;9950;50.168;8.210;2023-08-21T06:16:15;18.02;;;13.38;;
19605;SDS011;9950;50.168;8.210;2023-08-21T06:18:43;17.23;;;13.07;;
19605;SDS011;9950;50.168;8.210;2023-08-21T06:21:10;15.90;;;12.43;;
19605;SDS011;9950;50.168;8.210;2023-08-21T06:23:37;18.48;;;13.05;;
19605;SDS011;9950;50.168;8.210;2023-08-21T06:26:04;15.75;;;13.15;;
19605;SDS011;9950;50.168;8.210;2023-08-21T06:28:31;16.00;;;12.40;;
19605;SDS011;9950;50.168;8.210;2023-08-21T06:30:59;17.10;;;12.70;;
19605;SDS011;9950;50.168;8.210;2023-08-21T06:33:29;17.08;;;13.05;;
19605;SDS011;9950;50.168;8.210;2023-08-21T06:35:57;15.77;;;12.55;;
19605;SDS011;9950;50.168;8.210;2023-08-21T06:38:25;15.38;;;12.25;;
19605;SDS011;9950;50.168;8.210;2023-08-21T06:40:52;18.02;;;12.90;;
19605;SDS011;9950;50.168;8.210;2023-08-21T06:43:19;15.88;;;12.75;;
19605;SDS011;9950;50.168;8.210;2023-08-21T06:45:47;13.75;;;12.02;;
19605;SDS011;9950;50.168;8.210;2023-08-21T06:48:15;15.57;;;11.80;;
19605;SDS011;9950;50.168;8.210;2023-08-21T06:50:45;14.95;;;11.55;;
19605;SDS011;9950;50.168;8.210;2023-08-21T06:53:12;15.18;;;12.48;;
19605;SDS011;9950;50.168;8.210;2023-08-21T06:55:39;16.92;;;11.95;;
19605;SDS011;9950;50.168;8.210;2023-08-21T06:58:06;15.65;;;11.60;;
19605;SDS011;9950;50.168;8.210;2023-08-21T07:00:34;13.43;;;11.57;;
19605;SDS011;9950;50.168;8.210;2023-08-21T07:03:01;14.98;;;11.85;;
19605;SDS011;9950;50.168;8.210;2023-08-21T07:05:32;13.95;;;11.55;;
19605;SDS011;9950;50.168;8.210;2023-08-21T07:08:01;14.30;;;11.50;;
19605;SDS011;9950;50.168;8.210;2023-08-21T07:10:28;13.77;;;11.13;;
19605;SDS011;9950;50.168;8.210;2023-08-21T07:12:56;14.38;;;11.55;;
19605;SDS011;9950;50.168;8.210;2023-08-21T07:15:24;12.13;;;10.82;;
19605;SDS011;9950;50.168;8.210;2023-08-21T07:17:51;12.30;;;10.73;;
19605;SDS011;9950;50.168;8.210;2023-08-21T07:20:20;14.93;;;10.57;;
19605;SDS011;9950;50.168;8.210;2023-08-21T07:22:50;13.35;;;10.40;;
19605;SDS011;9950;50.168;8.210;2023-08-21T07:25:19;14.93;;;10.18;;
19605;SDS011;9950;50.168;8.210;2023-08-21T07:27:46;12.63;;;9.75;;
19605;SDS011;9950;50.168;8.210;2023-08-21T07:30:16;15.57;;;9.80;;
19605;SDS011;9950;50.168;8.210;2023-08-21T07:32:43;9.65;;;8.65;;
19605;SDS011;9950;50.168;8.210;2023-08-21T07:35:11;9.65;;;8.57;;
19605;SDS011;9950;50.168;8.210;2023-08-21T07:37:38;10.68;;;8.82;;
19605;SDS011;9950;50.168;8.210;2023-08-21T07:40:07;12.57;;;9.85;;
19605;SDS011;9950;50.168;8.210;2023-08-21T07:42:38;11.90;;;9.02;;
19605;SDS011;9950;50.168;8.210;2023-08-21T07:45:06;10.50;;;7.70;;
19605;SDS011;9950;50.168;8.210;2023-08-21T07:47:33;12.38;;;8.18;;
19605;SDS011;9950;50.168;8.210;2023-08-21T07:50:01;10.95;;;8.35;;
19605;SDS011;9950;50.168;8.210;2023-08-21T07:52:28;9.55;;;7.60;;
19605;SDS011;9950;50.168;8.210;2023-08-21T07:54:55;14.00;;;8.00;;
19605;SDS011;9950;50.168;8.210;2023-08-21T07:57:24;9.05;;;8.15;;
19605;SDS011;9950;50.168;8.210;2023-08-21T07:59:52;12.48;;;7.82;;
19605;SDS011;9950;50.168;8.210;2023-08-21T08:02:20;9.38;;;7.70;;
19605;SDS011;9950;50.168;8.210;2023-08-21T08:04:47;19.17;;;10.18;;
19605;SDS011;9950;50.168;8.210;2023-08-21T08:07:14;13.93;;;8.68;;
19605;SDS011;9950;50.168;8.210;2023-08-21T08:09:41;9.93;;;7.55;;
19605;SDS011;9950;50.168;8.210;2023-08-21T08:12:09;10.98;;;7.43;;
19605;SDS011;9950;50.168;8.210;2023-08-21T08:14:42;9.25;;;7.43;;
19605;SDS011;9950;50.168;8.210;2023-08-21T08:17:11;9.27;;;7.18;;
19605;SDS011;9950;50.168;8.210;2023-08-21T08:19:38;8.05;;;7.00;;
19605;SDS011;9950;50.168;8.210;2023-08-21T08:22:06;7.18;;;6.43;;
19605;SDS011;9950;50.168;8.210;2023-08-21T08:24:33;8.10;;;5.75;;
19605;SDS011;9950;50.168;8.210;2023-08-21T08:27:00;8.82;;;5.53;;
19605;SDS011;9950;50.168;8.210;2023-08-21T08:29:28;8.15;;;4.93;;
19605;SDS011;9950;50.168;8.210;2023-08-21T08:31:55;7.15;;;5.72;;
19605;SDS011;9950;50.168;8.210;2023-08-21T08:34:23;6.97;;;5.60;;
19605;SDS011;9950;50.168;8.210;2023-08-21T08:36:51;12.18;;;7.50;;
19605;SDS011;9950;50.168;8.210;2023-08-21T08:39:18;9.52;;;6.22;;
19605;SDS011;9950;50.168;8.210;2023-08-21T08:41:48;10.80;;;6.00;;
19605;SDS011;9950;50.168;8.210;2023-08-21T08:44:16;9.23;;;5.57;;
19605;SDS011;9950;50.168;8.210;2023-08-21T08:46:44;6.90;;;5.30;;
19605;SDS011;9950;50.168;8.210;2023-08-21T08:49:11;6.35;;;5.50;;
19605;SDS011;9950;50.168;8.210;2023-08-21T08:51:40;5.88;;;4.45;;
19605;SDS011;9950;50.168;8.210;2023-08-21T08:54:09;6.25;;;3.38;;
19605;SDS011;9950;50.168;8.210;2023-08-21T08:56:37;4.60;;;3.78;;
19605;SDS011;9950;50.168;8.210;2023-08-21T08:59:05;6.93;;;3.88;;
19605;SDS011;9950;50.168;8.210;2023-08-21T09:01:32;5.60;;;4.20;;
19605;SDS011;9950;50.168;8.210;2023-08-21T09:04:00;4.90;;;4.15;;
19605;SDS011;9950;50.168;8.210;2023-08-21T09:06:27;5.45;;;3.88;;
19605;SDS011;9950;50.168;8.210;2023-08-21T09:08:57;6.22;;;4.57;;
19605;SDS011;9950;50.168;8.210;2023-08-21T09:11:27;7.13;;;4.15;;
19605;SDS011;9950;50.168;8.210;2023-08-21T09:13:54;6.43;;;4.32;;
19605;SDS011;9950;50.168;8.210;2023-08-21T09:16:22;4.68;;;3.35;;
19605;SDS011;9950;50.168;8.210;2023-08-21T09:18:51;4.20;;;2.95;;
19605;SDS011;9950;50.168;8.210;2023-08-21T09:21:19;4.03;;;3.08;;
19605;SDS011;9950;50.168;8.210;2023-08-21T09:23:47;4.07;;;3.10;;
19605;SDS011;9950;50.168;8.210;2023-08-21T09:26:19;4.13;;;2.90;;
19605;SDS011;9950;50.168;8.210;2023-08-21T09:28:46;3.20;;;2.90;;
19605;SDS011;9950;50.168;8.210;2023-08-21T09:31:14;3.30;;;3.00;;
19605;SDS011;9950;50.168;8.210;2023-08-21T09:33:42;3.45;;;1.63;;
19605;SDS011;9950;50.168;8.210;2023-08-21T09:36:09;1.90;;;1.10;;
19605;SDS011;9950;50.168;8.210;2023-08-21T09:38:38;2.03;;;1.25;;
19605;SDS011;9950;50.168;8.210;2023-08-21T09:41:06;1.88;;;1.50;;
19605;SDS011;9950;50.168;8.210;2023-08-21T09:43:40;3.88;;;1.90;;
19605;SDS011;9950;50.168;8.210;2023-08-21T09:46:09;2.78;;;1.58;;
19605;SDS011;9950;50.168;8.210;2023-08-21T09:48:41;2.30;;;1.50;;
19605;SDS011;9950;50.168;8.210;2023-08-21T09:51:08;4.10;;;1.60;;
19605;SDS011;9950;50.168;8.210;2023-08-21T09:53:37;2.50;;;1.73;;
19605;SDS011;9950;50.168;8.210;2023-08-21T09:56:05;3.33;;;1.73;;
19605;SDS011;9950;50.168;8.210;2023-08-21T09:58:35;2.22;;;1.80;;
19605;SDS011;9950;50.168;8.210;2023-08-21T10:01:04;2.53;;;2.20;;
19605;SDS011;9950;50.168;8.210;2023-08-21T10:03:37;3.17;;;2.10;;
19605;SDS011;9950;50.168;8.210;2023-08-21T10:06:08;3.53;;;2.08;;
19605;SDS011;9950;50.168;8.210;2023-08-21T10:08:36;3.40;;;2.28;;
19605;SDS011;9950;50.168;8.210;2023-08-21T10:11:05;3.38;;;1.92;;
19605;SDS011;9950;50.168;8.210;2023-08-21T10:13:36;4.18;;;2.13;;
19605;SDS011;9950;50.168;8.210;2023-08-21T10:16:04;3.58;;;2.40;;
19605;SDS011;9950;50.168;8.210;2023-08-21T10:18:32;5.72;;;2.38;;
19605;SDS011;9950;50.168;8.210;2023-08-21T10:21:12;5.00;;;2.70;;
19605;SDS011;9950;50.168;8.210;2023-08-21T10:23:40;4.50;;;2.65;;
19605;SDS011;9950;50.168;8.210;2023-08-21T10:26:09;2.88;;;2.58;;
19605;SDS011;9950;50.168;8.210;2023-08-21T10:28:45;5.95;;;3.55;;
19605;SDS011;9950;50.168;8.210;2023-08-21T10:31:34;4.50;;;2.85;;
19605;SDS011;9950;50.168;8.210;2023-08-21T10:34:02;5.03;;;3.08;;
19605;SDS011;9950;50.168;8.210;2023-08-21T10:39:16;6.15;;;3.00;;
19605;SDS011;9950;50.168;8.210;2023-08-21T10:41:52;5.28;;;2.78;;
19605;SDS011;9950;50.168;8.210;2023-08-21T10:44:35;5.60;;;3.30;;
19605;SDS011;9950;50.168;8.210;2023-08-21T10:49:45;4.45;;;2.90;;
19605;SDS011;9950;50.168;8.210;2023-08-21T10:52:12;3.45;;;2.90;;
19605;SDS011;9950;50.168;8.210;2023-08-21T10:54:43;3.58;;;2.60;;
19605;SDS011;9950;50.168;8.210;2023-08-21T10:57:11;5.50;;;3.13;;
19605;SDS011;9950;50.168;8.210;2023-08-21T10:59:39;4.38;;;3.03;;
19605;SDS011;9950;50.168;8.210;2023-08-21T11:02:15;4.47;;;2.97;;
19605;SDS011;9950;50.168;8.210;2023-08-21T11:04:43;3.45;;;3.00;;
19605;SDS011;9950;50.168;8.210;2023-08-21T11:07:10;4.65;;;3.20;;
19605;SDS011;9950;50.168;8.210;2023-08-21T11:09:37;4.15;;;3.05;;
19605;SDS011;9950;50.168;8.210;2023-08-21T11:12:05;5.90;;;3.08;;
19605;SDS011;9950;50.168;8.210;2023-08-21T11:14:37;5.00;;;2.92;;
19605;SDS011;9950;50.168;8.210;2023-08-21T11:17:07;3.90;;;3.38;;
19605;SDS011;9950;50.168;8.210;2023-08-21T11:19:34;5.05;;;3.38;;
19605;SDS011;9950;50.168;8.210;2023-08-21T11:22:02;3.88;;;3.05;;
19605;SDS011;9950;50.168;8.210;2023-08-21T11:24:31;5.97;;;3.15;;
19605;SDS011;9950;50.168;8.210;2023-08-21T11:27:05;3.40;;;3.08;;
19605;SDS011;9950;50.168;8.210;2023-08-21T11:29:35;5.65;;;3.17;;
19605;SDS011;9950;50.168;8.210;2023-08-21T11:32:05;4.15;;;3.33;;
19605;SDS011;9950;50.168;8.210;2023-08-21T11:34:35;3.65;;;3.30;;
19605;SDS011;9950;50.168;8.210;2023-08-21T11:37:03;4.03;;;3.38;;
19605;SDS011;9950;50.168;8.210;2023-08-21T11:39:43;6.75;;;2.88;;
19605;SDS011;9950;50.168;8.210;2023-08-21T11:42:11;5.20;;;3.00;;
19605;SDS011;9950;50.168;8.210;2023-08-21T11:44:46;3.60;;;2.70;;
19605;SDS011;9950;50.168;8.210;2023-08-21T11:47:14;3.80;;;2.85;;
19605;SDS011;9950;50.168;8.210;2023-08-21T11:49:43;3.58;;;2.78;;
19605;SDS011;9950;50.168;8.210;2023-08-21T11:52:12;2.78;;;2.40;;
19605;SDS011;9950;50.168;8.210;2023-08-21T11:54:41;4.03;;;2.28;;
19605;SDS011;9950;50.168;8.210;2023-08-21T11:57:08;3.78;;;2.50;;
19605;SDS011;9950;50.168;8.210;2023-08-21T11:59:36;3.58;;;2.30;;
19605;SDS011;9950;50.168;8.210;2023-08-21T12:02:13;3.03;;;2.15;;
19605;SDS011;9950;50.168;8.210;2023-08-21T12:04:42;4.28;;;2.20;;
19605;SDS011;9950;50.168;8.210;2023-08-21T12:07:10;3.90;;;2.50;;
19605;SDS011;9950;50.168;8.210;2023-08-21T12:09:37;4.30;;;2.65;;
19605;SDS011;9950;50.168;8.210;2023-08-21T12:12:05;2.58;;;2.38;;
19605;SDS011;9950;50.168;8.210;2023-08-21T12:14:33;3.17;;;2.25;;
19605;SDS011;9950;50.168;8.210;2023-08-21T12:17:04;3.50;;;2.20;;
19605;SDS011;9950;50.168;8.210;2023-08-21T12:19:32;3.40;;;2.30;;
19605;SDS011;9950;50.168;8.210;2023-08-21T12:22:00;2.72;;;2.25;;
19605;SDS011;9950;50.168;8.210;2023-08-21T12:24:28;5.28;;;2.42;;
19605;SDS011;9950;50.168;8.210;2023-08-21T12:26:55;3.10;;;2.80;;
19605;SDS011;9950;50.168;8.210;2023-08-21T12:29:22;2.83;;;2.50;;
19605;SDS011;9950;50.168;8.210;2023-08-21T12:31:50;3.00;;;2.17;;
19605;SDS011;9950;50.168;8.210;2023-08-21T12:34:17;3.10;;;2.40;;
19605;SDS011;9950;50.168;8.210;2023-08-21T12:36:44;3.47;;;2.50;;
19605;SDS011;9950;50.168;8.210;2023-08-21T12:39:13;3.60;;;1.80;;
19605;SDS011;9950;50.168;8.210;2023-08-21T12:41:44;2.33;;;2.13;;
19605;SDS011;9950;50.168;8.210;2023-08-21T12:44:11;4.18;;;2.38;;
19605;SDS011;9950;50.168;8.210;2023-08-21T12:46:38;5.38;;;2.70;;
19605;SDS011;9950;50.168;8.210;2023-08-21T12:49:06;3.47;;;2.53;;
19605;SDS011;9950;50.168;8.210;2023-08-21T12:51:33;6.20;;;2.67;;
19605;SDS011;9950;50.168;8.210;2023-08-21T12:54:00;3.10;;;2.38;;
19605;SDS011;9950;50.168;8.210;2023-08-21T12:56:29;3.45;;;2.95;;
19605;SDS011;9950;50.168;8.210;2023-08-21T12:58:57;3.13;;;2.65;;
19605;SDS011;9950;50.168;8.210;2023-08-21T13:01:24;2.45;;;2.25;;
19605;SDS011;9950;50.168;8.210;2023-08-21T13:03:51;2.65;;;2.30;;
19605;SDS011;9950;50.168;8.210;2023-08-21T13:06:19;2.63;;;2.40;;
19605;SDS011;9950;50.168;8.210;2023-08-21T13:08:46;2.53;;;2.13;;
19605;SDS011;9950;50.168;8.210;2023-08-21T13:11:13;2.70;;;2.22;;
19605;SDS011;9950;50.168;8.210;2023-08-21T13:13:42;3.72;;;2.10;;
19605;SDS011;9950;50.168;8.210;2023-08-21T13:16:09;4.07;;;2.13;;
19605;SDS011;9950;50.168;8.210;2023-08-21T13:18:37;4.25;;;2.05;;
19605;SDS011;9950;50.168;8.210;2023-08-21T13:21:04;2.45;;;2.25;;
19605;SDS011;9950;50.168;8.210;2023-08-21T13:23:31;3.53;;;2.33;;
19605;SDS011;9950;50.168;8.210;2023-08-21T13:25:59;5.32;;;1.90;;
19605;SDS011;9950;50.168;8.210;2023-08-21T13:28:27;2.50;;;2.00;;
19605;SDS011;9950;50.168;8.210;2023-08-21T13:30:57;2.75;;;2.40;;
19605;SDS011;9950;50.168;8.210;2023-08-21T13:33:25;3.72;;;2.17;;
19605;SDS011;9950;50.168;8.210;2023-08-21T13:35:52;3.03;;;2.10;;
19605;SDS011;9950;50.168;8.210;2023-08-21T13:38:19;5.45;;;1.70;;
19605;SDS011;9950;50.168;8.210;2023-08-21T13:40:46;5.38;;;2.25;;
19605;SDS011;9950;50.168;8.210;2023-08-21T13:43:14;4.30;;;2.40;;
19605;SDS011;9950;50.168;8.210;2023-08-21T13:45:41;2.15;;;1.95;;
19605;SDS011;9950;50.168;8.210;2023-08-21T13:48:09;4.25;;;2.40;;
19605;SDS011;9950;50.168;8.210;2023-08-21T13:50:37;3.50;;;1.85;;
19605;SDS011;9950;50.168;8.210;2023-08-21T13:53:04;3.13;;;2.13;;
19605;SDS011;9950;50.168;8.210;2023-08-21T13:55:32;2.05;;;1.83;;
19605;SDS011;9950;50.168;8.210;2023-08-21T13:57:59;3.13;;;2.03;;
19605;SDS011;9950;50.168;8.210;2023-08-21T14:00:27;4.07;;;2.20;;
19605;SDS011;9950;50.168;8.210;2023-08-21T14:02:54;2.63;;;1.90;;
19605;SDS011;9950;50.168;8.210;2023-08-21T14:05:23;2.88;;;1.95;;
19605;SDS011;9950;50.168;8.210;2023-08-21T14:07:51;2.45;;;1.70;;
19605;SDS011;9950;50.168;8.210;2023-08-21T14:10:18;2.42;;;2.00;;
19605;SDS011;9950;50.168;8.210;2023-08-21T14:12:46;2.10;;;1.80;;
19605;SDS011;9950;50.168;8.210;2023-08-21T14:15:13;3.33;;;2.03;;
19605;SDS011;9950;50.168;8.210;2023-08-21T14:17:40;2.13;;;1.92;;
19605;SDS011;9950;50.168;8.210;2023-08-21T14:20:07;3.42;;;2.00;;
19605;SDS011;9950;50.168;8.210;2023-08-21T14:22:37;2.13;;;1.85;;
19605;SDS011;9950;50.168;8.210;2023-08-21T14:25:07;2.45;;;2.25;;
19605;SDS011;9950;50.168;8.210;2023-08-21T14:27:35;4.38;;;1.75;;
19605;SDS011;9950;50.168;8.210;2023-08-21T14:30:03;2.22;;;1.60;;
19605;SDS011;9950;50.168;8.210;2023-08-21T14:32:31;2.70;;;1.90;;
19605;SDS011;9950;50.168;8.210;2023-08-21T14:34:58;2.22;;;1.80;;
19605;SDS011;9950;50.168;8.210;2023-08-21T14:37:25;1.77;;;1.58;;
19605;SDS011;9950;50.168;8.210;2023-08-21T14:39:54;2.65;;;1.75;;
19605;SDS011;9950;50.168;8.210;2023-08-21T14:42:21;2.15;;;1.90;;
19605;SDS011;9950;50.168;8.210;2023-08-21T14:44:48;2.17;;;1.98;;
19605;SDS011;9950;50.168;8.210;2023-08-21T14:47:15;2.85;;;2.30;;
19605;SDS011;9950;50.168;8.210;2023-08-21T14:49:43;3.28;;;2.22;;
19605;SDS011;9950;50.168;8.210;2023-08-21T14:52:10;2.40;;;2.00;;
19605;SDS011;9950;50.168;8.210;2023-08-21T14:54:37;5.65;;;2.20;;
19605;SDS011;9950;50.168;8.210;2023-08-21T14:57:06;3.78;;;2.42;;
19605;SDS011;9950;50.168;8.210;2023-08-21T14:59:33;2.63;;;1.90;;
19605;SDS011;9950;50.168;8.210;2023-08-21T15:02:00;3.58;;;2.03;;
19605;SDS011;9950;50.168;8.210;2023-08-21T15:04:28;3.88;;;2.00;;